sensor_id;sensor_type;location;lat;lon;timestamp;P1;durP1;ratioP1;P2;durP2;ratioP2
12367;SDS011;6248;49.812;6.620;2023-11-19T00:00:30;0.87;;;0.70;;
12367;SDS011;6248;49.812;6.620;2023-11-19T00:02:58;0.60;;;0.60;;
12367;SDS011;6248;49.812;6.620;2023-11-19T00:05:26;0.90;;;0.90;;
12367;SDS011;6248;49.812;6.620;2023-11-19T00:07:54;0.90;;;0.90;;
12367;SDS011;6248;49.812;6.620;2023-11-19T00:10:21;1.00;;;1.00;;
12367;SDS011;6248;49.812;6.620;2023-11-19T00:12:48;0.70;;;0.70;;
12367;SDS011;6248;49.812;6.620;2023-11-19T00:15:16;1.23;;;1.23;;
12367;SDS011;6248;49.812;6.620;2023-11-19T00:17:44;0.90;;;0.90;;
12367;SDS011;6248;49.812;6.620;2023-11-19T00:20:12;1.00;;;1.00;;
12367;SDS011;6248;49.812;6.620;2023-11-19T00:22:41;0.90;;;0.90;;
12367;SDS011;6248;49.812;6.620;2023-11-19T00:25:09;1.10;;;1.10;;
12367;SDS011;6248;49.812;6.620;2023-11-19T00:27:36;1.20;;;1.20;;
12367;SDS011;6248;49.812;6.620;2023-11-19T00:30:04;1.50;;;1.40;;
12367;SDS011;6248;49.812;6.620;2023-11-19T00:32:31;1.40;;;1.40;;
12367;SDS011;6248;49.812;6.620;2023-11-19T00:34:58;1.57;;;1.47;;
12367;SDS011;6248;49.812;6.620;2023-11-19T00:37:26;1.10;;;1.10;;
12367;SDS011;6248;49.812;6.620;2023-11-19T00:39:54;0.90;;;0.90;;
12367;SDS011;6248;49.812;6.620;2023-11-19T00:42:21;1.07;;;1.00;;
12367;SDS011;6248;49.812;6.620;2023-11-19T00:44:49;0.80;;;0.80;;
12367;SDS011;6248;49.812;6.620;2023-11-19T00:47:16;1.07;;;1.07;;
12367;SDS011;6248;49.812;6.620;2023-11-19T00:49:45;1.60;;;1.50;;
12367;SDS011;6248;49.812;6.620;2023-11-19T00:52:13;1.07;;;0.80;;
12367;SDS011;6248;49.812;6.620;2023-11-19T00:54:40;1.00;;;1.00;;
12367;SDS011;6248;49.812;6.620;2023-11-19T00:57:09;1.17;;;1.17;;
12367;SDS011;6248;49.812;6.620;2023-11-19T00:59:36;1.20;;;1.10;;
12367;SDS011;6248;49.812;6.620;2023-11-19T01:02:03;1.10;;;1.10;;
12367;SDS011;6248;49.812;6.620;2023-11-19T01:04:33;1.77;;;1.30;;
12367;SDS011;6248;49.812;6.620;2023-11-19T01:07:01;1.10;;;1.10;;
12367;SDS011;6248;49.812;6.620;2023-11-19T01:09:30;1.50;;;1.40;;
12367;SDS011;6248;49.812;6.620;2023-11-19T01:11:59;1.67;;;1.57;;
12367;SDS011;6248;49.812;6.620;2023-11-19T01:14:28;1.63;;;1.53;;
12367;SDS011;6248;49.812;6.620;2023-11-19T01:16:55;2.00;;;1.90;;
12367;SDS011;6248;49.812;6.620;2023-11-19T01:19:22;1.57;;;1.47;;
12367;SDS011;6248;49.812;6.620;2023-11-19T01:21:50;2.40;;;1.80;;
12367;SDS011;6248;49.812;6.620;2023-11-19T01:24:17;3.07;;;1.90;;
12367;SDS011;6248;49.812;6.620;2023-11-19T01:26:44;2.30;;;1.80;;
12367;SDS011;6248;49.812;6.620;2023-11-19T01:29:12;1.53;;;1.47;;
12367;SDS011;6248;49.812;6.620;2023-11-19T01:31:41;1.63;;;1.47;;
12367;SDS011;6248;49.812;6.620;2023-11-19T01:34:08;1.80;;;1.63;;
12367;SDS011;6248;49.812;6.620;2023-11-19T01:36:36;2.07;;;1.97;;
12367;SDS011;6248;49.812;6.620;2023-11-19T01:39:04;1.93;;;1.83;;
12367;SDS011;6248;49.812;6.620;2023-11-19T01:41:33;2.10;;;2.00;;
12367;SDS011;6248;49.812;6.620;2023-11-19T01:44:01;3.00;;;2.10;;
12367;SDS011;6248;49.812;6.620;2023-11-19T01:46:28;2.73;;;2.03;;
12367;SDS011;6248;49.812;6.620;2023-11-19T01:48:59;2.33;;;2.23;;
12367;SDS011;6248;49.812;6.620;2023-11-19T01:51:27;2.13;;;2.03;;
12367;SDS011;6248;49.812;6.620;2023-11-19T01:53:54;2.20;;;2.10;;
12367;SDS011;6248;49.812;6.620;2023-11-19T01:56:22;3.63;;;1.90;;
12367;SDS011;6248;49.812;6.620;2023-11-19T01:58:50;2.30;;;2.10;;
12367;SDS011;6248;49.812;6.620;2023-11-19T02:01:17;2.23;;;1.90;;
12367;SDS011;6248;49.812;6.620;2023-11-19T02:03:44;1.90;;;1.80;;
12367;SDS011;6248;49.812;6.620;2023-11-19T02:06:14;2.37;;;2.17;;
12367;SDS011;6248;49.812;6.620;2023-11-19T02:08:41;2.30;;;2.20;;
12367;SDS011;6248;49.812;6.620;2023-11-19T02:11:09;2.20;;;2.00;;
12367;SDS011;6248;49.812;6.620;2023-11-19T02:13:37;2.30;;;2.10;;
12367;SDS011;6248;49.812;6.620;2023-11-19T02:16:05;2.17;;;2.03;;
12367;SDS011;6248;49.812;6.620;2023-11-19T02:18:33;2.30;;;2.10;;
12367;SDS011;6248;49.812;6.620;2023-11-19T02:21:00;2.00;;;1.90;;
12367;SDS011;6248;49.812;6.620;2023-11-19T02:23:29;2.60;;;2.40;;
12367;SDS011;6248;49.812;6.620;2023-11-19T02:26:01;2.50;;;2.30;;
12367;SDS011;6248;49.812;6.620;2023-11-19T02:28:31;2.03;;;1.93;;
12367;SDS011;6248;49.812;6.620;2023-11-19T02:30:59;3.20;;;2.40;;
12367;SDS011;6248;49.812;6.620;2023-11-19T02:33:26;2.97;;;2.77;;
12367;SDS011;6248;49.812;6.620;2023-11-19T02:35:54;2.50;;;2.30;;
12367;SDS011;6248;49.812;6.620;2023-11-19T02:38:21;2.83;;;2.40;;
12367;SDS011;6248;49.812;6.620;2023-11-19T02:40:48;2.73;;;2.53;;
12367;SDS011;6248;49.812;6.620;2023-11-19T02:43:16;2.93;;;2.50;;
12367;SDS011;6248;49.812;6.620;2023-11-19T02:45:44;2.73;;;2.53;;
12367;SDS011;6248;49.812;6.620;2023-11-19T02:48:11;3.23;;;2.70;;
12367;SDS011;6248;49.812;6.620;2023-11-19T02:50:39;2.23;;;2.03;;
12367;SDS011;6248;49.812;6.620;2023-11-19T02:53:06;2.30;;;2.20;;
12367;SDS011;6248;49.812;6.620;2023-11-19T02:55:33;2.43;;;2.33;;
12367;SDS011;6248;49.812;6.620;2023-11-19T02:58:02;3.03;;;2.23;;
12367;SDS011;6248;49.812;6.620;2023-11-19T03:00:34;2.80;;;2.60;;
12367;SDS011;6248;49.812;6.620;2023-11-19T03:03:08;2.40;;;2.27;;
12367;SDS011;6248;49.812;6.620;2023-11-19T03:05:45;3.23;;;3.00;;
12367;SDS011;6248;49.812;6.620;2023-11-19T03:08:13;3.50;;;3.20;;
12367;SDS011;6248;49.812;6.620;2023-11-19T03:10:40;3.80;;;3.50;;
12367;SDS011;6248;49.812;6.620;2023-11-19T03:13:09;3.40;;;3.10;;
12367;SDS011;6248;49.812;6.620;2023-11-19T03:15:39;4.20;;;3.80;;
12367;SDS011;6248;49.812;6.620;2023-11-19T03:18:06;5.30;;;3.50;;
12367;SDS011;6248;49.812;6.620;2023-11-19T03:20:34;3.50;;;3.20;;
12367;SDS011;6248;49.812;6.620;2023-11-19T03:23:01;3.63;;;3.33;;
12367;SDS011;6248;49.812;6.620;2023-11-19T03:25:29;3.60;;;3.30;;
12367;SDS011;6248;49.812;6.620;2023-11-19T03:27:59;3.80;;;3.50;;
12367;SDS011;6248;49.812;6.620;2023-11-19T03:30:26;3.37;;;3.07;;
12367;SDS011;6248;49.812;6.620;2023-11-19T03:32:54;3.50;;;3.20;;
12367;SDS011;6248;49.812;6.620;2023-11-19T03:35:21;3.63;;;2.90;;
12367;SDS011;6248;49.812;6.620;2023-11-19T03:37:50;2.33;;;2.23;;
12367;SDS011;6248;49.812;6.620;2023-11-19T03:40:18;4.07;;;2.70;;
12367;SDS011;6248;49.812;6.620;2023-11-19T03:42:45;2.63;;;2.43;;
12367;SDS011;6248;49.812;6.620;2023-11-19T03:45:12;2.50;;;2.30;;
12367;SDS011;6248;49.812;6.620;2023-11-19T03:47:41;2.50;;;2.30;;
12367;SDS011;6248;49.812;6.620;2023-11-19T03:50:08;3.00;;;2.80;;
12367;SDS011;6248;49.812;6.620;2023-11-19T03:52:35;3.97;;;2.87;;
12367;SDS011;6248;49.812;6.620;2023-11-19T03:55:04;3.00;;;2.80;;
12367;SDS011;6248;49.812;6.620;2023-11-19T03:57:33;2.90;;;2.60;;
12367;SDS011;6248;49.812;6.620;2023-11-19T04:00:00;2.70;;;2.50;;
12367;SDS011;6248;49.812;6.620;2023-11-19T04:02:33;2.63;;;2.43;;
12367;SDS011;6248;49.812;6.620;2023-11-19T04:05:01;2.20;;;2.10;;
12367;SDS011;6248;49.812;6.620;2023-11-19T04:07:28;2.50;;;2.30;;
12367;SDS011;6248;49.812;6.620;2023-11-19T04:09:55;2.60;;;2.40;;
12367;SDS011;6248;49.812;6.620;2023-11-19T04:12:23;2.23;;;2.10;;
12367;SDS011;6248;49.812;6.620;2023-11-19T04:14:51;2.30;;;2.10;;
12367;SDS011;6248;49.812;6.620;2023-11-19T04:17:18;3.27;;;2.50;;
12367;SDS011;6248;49.812;6.620;2023-11-19T04:19:45;3.07;;;2.13;;
12367;SDS011;6248;49.812;6.620;2023-11-19T04:22:13;2.20;;;2.10;;
12367;SDS011;6248;49.812;6.620;2023-11-19T04:24:40;2.17;;;2.03;;
12367;SDS011;6248;49.812;6.620;2023-11-19T04:27:09;2.30;;;2.10;;
12367;SDS011;6248;49.812;6.620;2023-11-19T04:29:37;2.10;;;2.00;;
12367;SDS011;6248;49.812;6.620;2023-11-19T04:32:05;2.67;;;2.40;;
12367;SDS011;6248;49.812;6.620;2023-11-19T04:34:32;3.87;;;2.80;;
12367;SDS011;6248;49.812;6.620;2023-11-19T04:37:00;4.60;;;2.50;;
12367;SDS011;6248;49.812;6.620;2023-11-19T04:39:28;1.97;;;1.77;;
12367;SDS011;6248;49.812;6.620;2023-11-19T04:41:55;2.00;;;1.80;;
12367;SDS011;6248;49.812;6.620;2023-11-19T04:44:22;2.17;;;2.00;;
12367;SDS011;6248;49.812;6.620;2023-11-19T04:46:51;2.33;;;2.10;;
12367;SDS011;6248;49.812;6.620;2023-11-19T04:49:18;2.80;;;2.23;;
12367;SDS011;6248;49.812;6.620;2023-11-19T04:51:45;1.80;;;1.70;;
12367;SDS011;6248;49.812;6.620;2023-11-19T04:54:13;1.70;;;1.60;;
12367;SDS011;6248;49.812;6.620;2023-11-19T04:56:40;1.83;;;1.73;;
12367;SDS011;6248;49.812;6.620;2023-11-19T04:59:07;2.00;;;1.90;;
12367;SDS011;6248;49.812;6.620;2023-11-19T05:01:34;3.77;;;2.30;;
12367;SDS011;6248;49.812;6.620;2023-11-19T05:04:03;5.00;;;2.87;;
12367;SDS011;6248;49.812;6.620;2023-11-19T05:06:30;3.83;;;2.80;;
12367;SDS011;6248;49.812;6.620;2023-11-19T05:08:58;2.97;;;2.50;;
12367;SDS011;6248;49.812;6.620;2023-11-19T05:11:26;4.80;;;2.50;;
12367;SDS011;6248;49.812;6.620;2023-11-19T05:13:54;3.90;;;2.30;;
12367;SDS011;6248;49.812;6.620;2023-11-19T05:16:21;4.33;;;1.93;;
12367;SDS011;6248;49.812;6.620;2023-11-19T05:18:48;3.33;;;2.30;;
12367;SDS011;6248;49.812;6.620;2023-11-19T05:21:17;2.25;;;2.05;;
12367;SDS011;6248;49.812;6.620;2023-11-19T05:23:44;3.92;;;1.70;;
12367;SDS011;6248;49.812;6.620;2023-11-19T05:26:16;1.67;;;1.58;;
12367;SDS011;6248;49.812;6.620;2023-11-19T05:28:44;3.07;;;1.70;;
12367;SDS011;6248;49.812;6.620;2023-11-19T05:31:11;2.23;;;1.30;;
12367;SDS011;6248;49.812;6.620;2023-11-19T05:33:39;1.80;;;1.25;;
12367;SDS011;6248;49.812;6.620;2023-11-19T05:36:06;1.50;;;1.40;;
12367;SDS011;6248;49.812;6.620;2023-11-19T05:38:35;4.73;;;1.30;;
12367;SDS011;6248;49.812;6.620;2023-11-19T05:41:03;1.35;;;1.20;;
12367;SDS011;6248;49.812;6.620;2023-11-19T05:43:30;2.05;;;1.35;;
12367;SDS011;6248;49.812;6.620;2023-11-19T05:45:58;2.17;;;1.45;;
12367;SDS011;6248;49.812;6.620;2023-11-19T05:48:26;2.50;;;1.52;;
12367;SDS011;6248;49.812;6.620;2023-11-19T05:50:53;2.85;;;1.70;;
12367;SDS011;6248;49.812;6.620;2023-11-19T05:53:21;2.78;;;1.60;;
12367;SDS011;6248;49.812;6.620;2023-11-19T05:55:49;3.60;;;1.92;;
12367;SDS011;6248;49.812;6.620;2023-11-19T05:58:22;3.17;;;1.50;;
12367;SDS011;6248;49.812;6.620;2023-11-19T06:00:51;2.85;;;1.52;;
12367;SDS011;6248;49.812;6.620;2023-11-19T06:03:18;4.87;;;1.77;;
12367;SDS011;6248;49.812;6.620;2023-11-19T06:05:46;2.70;;;1.60;;
12367;SDS011;6248;49.812;6.620;2023-11-19T06:08:13;4.57;;;1.73;;
12367;SDS011;6248;49.812;6.620;2023-11-19T06:10:41;4.07;;;1.50;;
12367;SDS011;6248;49.812;6.620;2023-11-19T06:13:10;5.70;;;1.60;;
12367;SDS011;6248;49.812;6.620;2023-11-19T06:15:37;4.10;;;1.50;;
12367;SDS011;6248;49.812;6.620;2023-11-19T06:18:04;5.03;;;1.60;;
12367;SDS011;6248;49.812;6.620;2023-11-19T06:20:32;3.75;;;1.40;;
12367;SDS011;6248;49.812;6.620;2023-11-19T06:22:59;4.00;;;1.70;;
12367;SDS011;6248;49.812;6.620;2023-11-19T06:25:27;2.47;;;1.50;;
12367;SDS011;6248;49.812;6.620;2023-11-19T06:27:54;4.95;;;1.50;;
12367;SDS011;6248;49.812;6.620;2023-11-19T06:30:23;3.70;;;1.60;;
12367;SDS011;6248;49.812;6.620;2023-11-19T06:32:51;3.73;;;1.63;;
12367;SDS011;6248;49.812;6.620;2023-11-19T06:35:18;2.10;;;1.30;;
12367;SDS011;6248;49.812;6.620;2023-11-19T06:37:46;3.17;;;1.40;;
12367;SDS011;6248;49.812;6.620;2023-11-19T06:40:13;3.27;;;1.33;;
12367;SDS011;6248;49.812;6.620;2023-11-19T06:42:40;5.80;;;1.80;;
12367;SDS011;6248;49.812;6.620;2023-11-19T06:45:08;3.87;;;1.33;;
12367;SDS011;6248;49.812;6.620;2023-11-19T06:47:36;4.00;;;1.60;;
12367;SDS011;6248;49.812;6.620;2023-11-19T06:50:04;5.67;;;1.50;;
12367;SDS011;6248;49.812;6.620;2023-11-19T06:52:32;4.40;;;1.33;;
12367;SDS011;6248;49.812;6.620;2023-11-19T06:54:59;3.80;;;1.33;;
12367;SDS011;6248;49.812;6.620;2023-11-19T06:57:26;3.37;;;1.63;;
12367;SDS011;6248;49.812;6.620;2023-11-19T06:59:54;3.37;;;1.60;;
12367;SDS011;6248;49.812;6.620;2023-11-19T07:02:21;3.77;;;1.70;;
12367;SDS011;6248;49.812;6.620;2023-11-19T07:04:50;3.80;;;1.30;;
12367;SDS011;6248;49.812;6.620;2023-11-19T07:07:17;4.53;;;1.60;;
12367;SDS011;6248;49.812;6.620;2023-11-19T07:09:45;4.07;;;1.40;;
12367;SDS011;6248;49.812;6.620;2023-11-19T07:12:13;4.97;;;1.73;;
12367;SDS011;6248;49.812;6.620;2023-11-19T07:14:40;5.50;;;1.80;;
12367;SDS011;6248;49.812;6.620;2023-11-19T07:17:08;8.27;;;1.67;;
12367;SDS011;6248;49.812;6.620;2023-11-19T07:19:35;3.43;;;1.30;;
12367;SDS011;6248;49.812;6.620;2023-11-19T07:22:04;4.80;;;1.30;;
12367;SDS011;6248;49.812;6.620;2023-11-19T07:24:32;4.65;;;1.25;;
12367;SDS011;6248;49.812;6.620;2023-11-19T07:26:59;7.77;;;1.67;;
12367;SDS011;6248;49.812;6.620;2023-11-19T07:29:29;3.93;;;1.40;;
12367;SDS011;6248;49.812;6.620;2023-11-19T07:31:56;5.17;;;1.57;;
12367;SDS011;6248;49.812;6.620;2023-11-19T07:34:24;3.85;;;1.33;;
12367;SDS011;6248;49.812;6.620;2023-11-19T07:36:51;4.65;;;1.58;;
12367;SDS011;6248;49.812;6.620;2023-11-19T07:39:19;5.10;;;1.70;;
12367;SDS011;6248;49.812;6.620;2023-11-19T07:41:47;4.20;;;1.30;;
12367;SDS011;6248;49.812;6.620;2023-11-19T07:44:14;5.00;;;1.67;;
12367;SDS011;6248;49.812;6.620;2023-11-19T07:46:41;3.50;;;1.60;;
12367;SDS011;6248;49.812;6.620;2023-11-19T07:49:10;4.33;;;1.63;;
12367;SDS011;6248;49.812;6.620;2023-11-19T07:51:37;5.43;;;1.48;;
12367;SDS011;6248;49.812;6.620;2023-11-19T07:54:04;5.13;;;1.60;;
12367;SDS011;6248;49.812;6.620;2023-11-19T07:56:33;6.90;;;1.80;;
12367;SDS011;6248;49.812;6.620;2023-11-19T07:59:00;3.27;;;1.83;;
12367;SDS011;6248;49.812;6.620;2023-11-19T08:01:27;4.88;;;1.88;;
12367;SDS011;6248;49.812;6.620;2023-11-19T08:03:55;3.50;;;1.30;;
12367;SDS011;6248;49.812;6.620;2023-11-19T08:06:22;5.43;;;1.70;;
12367;SDS011;6248;49.812;6.620;2023-11-19T08:08:49;3.90;;;1.53;;
12367;SDS011;6248;49.812;6.620;2023-11-19T08:11:17;4.03;;;1.45;;
12367;SDS011;6248;49.812;6.620;2023-11-19T08:13:46;6.93;;;2.00;;
12367;SDS011;6248;49.812;6.620;2023-11-19T08:16:13;5.50;;;1.70;;
12367;SDS011;6248;49.812;6.620;2023-11-19T08:18:41;6.72;;;1.88;;
12367;SDS011;6248;49.812;6.620;2023-11-19T08:21:08;7.07;;;1.92;;
12367;SDS011;6248;49.812;6.620;2023-11-19T08:23:35;4.43;;;1.80;;
12367;SDS011;6248;49.812;6.620;2023-11-19T08:26:03;6.77;;;1.97;;
12367;SDS011;6248;49.812;6.620;2023-11-19T08:28:30;8.33;;;2.20;;
12367;SDS011;6248;49.812;6.620;2023-11-19T08:31:00;8.13;;;2.40;;
12367;SDS011;6248;49.812;6.620;2023-11-19T08:33:29;7.13;;;2.30;;
12367;SDS011;6248;49.812;6.620;2023-11-19T08:35:56;8.97;;;2.30;;
12367;SDS011;6248;49.812;6.620;2023-11-19T08:38:23;7.20;;;2.22;;
12367;SDS011;6248;49.812;6.620;2023-11-19T08:40:51;7.30;;;2.07;;
12367;SDS011;6248;49.812;6.620;2023-11-19T08:43:18;7.50;;;2.10;;
12367;SDS011;6248;49.812;6.620;2023-11-19T08:45:45;8.97;;;2.50;;
12367;SDS011;6248;49.812;6.620;2023-11-19T08:48:14;8.17;;;2.33;;
12367;SDS011;6248;49.812;6.620;2023-11-19T08:50:41;8.27;;;2.17;;
12367;SDS011;6248;49.812;6.620;2023-11-19T08:53:08;7.47;;;1.90;;
12367;SDS011;6248;49.812;6.620;2023-11-19T08:55:36;8.37;;;2.23;;
12367;SDS011;6248;49.812;6.620;2023-11-19T08:58:03;9.53;;;3.50;;
12367;SDS011;6248;49.812;6.620;2023-11-19T09:00:31;10.82;;;4.88;;
12367;SDS011;6248;49.812;6.620;2023-11-19T09:02:58;9.73;;;5.53;;
12367;SDS011;6248;49.812;6.620;2023-11-19T09:05:26;8.50;;;2.20;;
12367;SDS011;6248;49.812;6.620;2023-11-19T09:07:54;6.20;;;2.63;;
12367;SDS011;6248;49.812;6.620;2023-11-19T09:10:21;5.73;;;1.70;;
12367;SDS011;6248;49.812;6.620;2023-11-19T09:12:48;4.80;;;1.43;;
12367;SDS011;6248;49.812;6.620;2023-11-19T09:15:15;4.65;;;1.83;;
12367;SDS011;6248;49.812;6.620;2023-11-19T09:17:42;6.10;;;1.80;;
12367;SDS011;6248;49.812;6.620;2023-11-19T09:20:10;6.93;;;1.63;;
12367;SDS011;6248;49.812;6.620;2023-11-19T09:22:41;5.10;;;1.40;;
12367;SDS011;6248;49.812;6.620;2023-11-19T09:25:08;6.50;;;1.80;;
12367;SDS011;6248;49.812;6.620;2023-11-19T09:27:36;3.93;;;1.40;;
12367;SDS011;6248;49.812;6.620;2023-11-19T09:30:03;5.40;;;1.53;;
12367;SDS011;6248;49.812;6.620;2023-11-19T09:32:30;4.63;;;1.60;;
12367;SDS011;6248;49.812;6.620;2023-11-19T09:34:58;7.10;;;1.90;;
12367;SDS011;6248;49.812;6.620;2023-11-19T09:37:25;5.10;;;1.60;;
12367;SDS011;6248;49.812;6.620;2023-11-19T09:39:54;5.17;;;1.57;;
12367;SDS011;6248;49.812;6.620;2023-11-19T09:42:21;5.40;;;1.77;;
12367;SDS011;6248;49.812;6.620;2023-11-19T09:44:50;5.03;;;1.80;;
12367;SDS011;6248;49.812;6.620;2023-11-19T09:47:18;4.43;;;1.67;;
12367;SDS011;6248;49.812;6.620;2023-11-19T09:49:46;5.03;;;1.70;;
12367;SDS011;6248;49.812;6.620;2023-11-19T09:52:13;6.03;;;1.90;;
12367;SDS011;6248;49.812;6.620;2023-11-19T09:54:41;4.88;;;1.75;;
12367;SDS011;6248;49.812;6.620;2023-11-19T09:57:09;5.38;;;1.60;;
12367;SDS011;6248;49.812;6.620;2023-11-19T09:59:37;6.00;;;2.05;;
12367;SDS011;6248;49.812;6.620;2023-11-19T10:02:05;6.57;;;1.88;;
12367;SDS011;6248;49.812;6.620;2023-11-19T10:04:33;6.32;;;2.10;;
12367;SDS011;6248;49.812;6.620;2023-11-19T10:07:02;6.40;;;2.10;;
12367;SDS011;6248;49.812;6.620;2023-11-19T10:09:29;6.43;;;2.13;;
12367;SDS011;6248;49.812;6.620;2023-11-19T10:11:56;8.70;;;2.13;;
12367;SDS011;6248;49.812;6.620;2023-11-19T10:14:25;9.55;;;3.35;;
12367;SDS011;6248;49.812;6.620;2023-11-19T10:16:54;13.90;;;5.18;;
12367;SDS011;6248;49.812;6.620;2023-11-19T10:19:22;8.98;;;2.90;;
12367;SDS011;6248;49.812;6.620;2023-11-19T10:21:49;10.30;;;3.40;;
12367;SDS011;6248;49.812;6.620;2023-11-19T10:24:16;9.68;;;3.50;;
12367;SDS011;6248;49.812;6.620;2023-11-19T10:26:43;8.48;;;3.15;;
12367;SDS011;6248;49.812;6.620;2023-11-19T10:29:12;10.73;;;3.25;;
12367;SDS011;6248;49.812;6.620;2023-11-19T10:31:41;11.05;;;3.00;;
12367;SDS011;6248;49.812;6.620;2023-11-19T10:34:24;7.63;;;2.72;;
12367;SDS011;6248;49.812;6.620;2023-11-19T10:36:51;8.93;;;2.88;;
12367;SDS011;6248;49.812;6.620;2023-11-19T10:39:18;9.15;;;2.83;;
12367;SDS011;6248;49.812;6.620;2023-11-19T10:41:46;7.22;;;2.58;;
12367;SDS011;6248;49.812;6.620;2023-11-19T10:44:23;8.63;;;2.47;;
12367;SDS011;6248;49.812;6.620;2023-11-19T10:47:00;8.82;;;2.53;;
12367;SDS011;6248;49.812;6.620;2023-11-19T10:49:27;8.63;;;2.30;;
12367;SDS011;6248;49.812;6.620;2023-11-19T10:51:54;10.93;;;2.70;;
12367;SDS011;6248;49.812;6.620;2023-11-19T10:54:22;9.65;;;2.50;;
12367;SDS011;6248;49.812;6.620;2023-11-19T10:56:51;8.02;;;2.30;;
12367;SDS011;6248;49.812;6.620;2023-11-19T10:59:21;6.63;;;2.63;;
12367;SDS011;6248;49.812;6.620;2023-11-19T11:01:50;8.20;;;2.20;;
12367;SDS011;6248;49.812;6.620;2023-11-19T11:04:19;8.90;;;2.75;;
12367;SDS011;6248;49.812;6.620;2023-11-19T11:06:49;7.18;;;2.35;;
12367;SDS011;6248;49.812;6.620;2023-11-19T11:09:17;7.72;;;2.20;;
12367;SDS011;6248;49.812;6.620;2023-11-19T11:11:45;7.72;;;2.50;;
12367;SDS011;6248;49.812;6.620;2023-11-19T11:14:13;11.30;;;2.90;;
12367;SDS011;6248;49.812;6.620;2023-11-19T11:16:41;9.70;;;2.55;;
12367;SDS011;6248;49.812;6.620;2023-11-19T11:19:09;9.85;;;2.45;;
12367;SDS011;6248;49.812;6.620;2023-11-19T11:21:38;7.97;;;2.50;;
12367;SDS011;6248;49.812;6.620;2023-11-19T11:24:14;10.50;;;2.20;;
12367;SDS011;6248;49.812;6.620;2023-11-19T11:29:34;8.10;;;2.35;;
12367;SDS011;6248;49.812;6.620;2023-11-19T11:32:06;8.00;;;2.28;;
12367;SDS011;6248;49.812;6.620;2023-11-19T11:34:48;5.00;;;1.77;;
12367;SDS011;6248;49.812;6.620;2023-11-19T11:37:21;10.10;;;2.83;;
12367;SDS011;6248;49.812;6.620;2023-11-19T11:39:51;5.82;;;1.83;;
12367;SDS011;6248;49.812;6.620;2023-11-19T11:42:34;4.53;;;1.70;;
12367;SDS011;6248;49.812;6.620;2023-11-19T11:45:02;6.45;;;2.20;;
12367;SDS011;6248;49.812;6.620;2023-11-19T11:50:19;8.98;;;2.30;;
12367;SDS011;6248;49.812;6.620;2023-11-19T11:55:34;6.22;;;1.75;;
12367;SDS011;6248;49.812;6.620;2023-11-19T11:58:02;6.05;;;1.88;;
12367;SDS011;6248;49.812;6.620;2023-11-19T12:00:30;6.57;;;2.00;;
12367;SDS011;6248;49.812;6.620;2023-11-19T12:02:58;7.40;;;1.92;;
12367;SDS011;6248;49.812;6.620;2023-11-19T12:05:26;10.63;;;2.90;;
12367;SDS011;6248;49.812;6.620;2023-11-19T12:07:54;9.30;;;2.13;;
12367;SDS011;6248;49.812;6.620;2023-11-19T12:10:23;10.90;;;3.30;;
12367;SDS011;6248;49.812;6.620;2023-11-19T12:12:53;11.15;;;2.55;;
12367;SDS011;6248;49.812;6.620;2023-11-19T12:15:20;10.05;;;2.95;;
12367;SDS011;6248;49.812;6.620;2023-11-19T12:17:50;9.00;;;2.42;;
12367;SDS011;6248;49.812;6.620;2023-11-19T12:20:18;9.48;;;2.50;;
12367;SDS011;6248;49.812;6.620;2023-11-19T12:22:46;7.25;;;2.20;;
12367;SDS011;6248;49.812;6.620;2023-11-19T12:25:14;7.00;;;1.98;;
12367;SDS011;6248;49.812;6.620;2023-11-19T12:27:43;7.88;;;2.20;;
12367;SDS011;6248;49.812;6.620;2023-11-19T12:30:12;6.85;;;2.25;;
12367;SDS011;6248;49.812;6.620;2023-11-19T12:32:40;7.30;;;2.65;;
12367;SDS011;6248;49.812;6.620;2023-11-19T12:35:07;6.80;;;2.28;;
12367;SDS011;6248;49.812;6.620;2023-11-19T12:37:42;9.07;;;2.25;;
12367;SDS011;6248;49.812;6.620;2023-11-19T12:40:17;9.57;;;2.30;;
12367;SDS011;6248;49.812;6.620;2023-11-19T12:42:44;8.80;;;2.67;;
12367;SDS011;6248;49.812;6.620;2023-11-19T12:45:13;7.35;;;2.47;;
12367;SDS011;6248;49.812;6.620;2023-11-19T12:47:41;9.93;;;2.92;;
12367;SDS011;6248;49.812;6.620;2023-11-19T12:50:09;8.80;;;2.40;;
12367;SDS011;6248;49.812;6.620;2023-11-19T12:52:36;10.40;;;2.97;;
12367;SDS011;6248;49.812;6.620;2023-11-19T12:55:04;11.93;;;3.13;;
12367;SDS011;6248;49.812;6.620;2023-11-19T12:57:35;9.45;;;2.50;;
12367;SDS011;6248;49.812;6.620;2023-11-19T13:00:03;9.40;;;3.08;;
12367;SDS011;6248;49.812;6.620;2023-11-19T13:02:48;6.45;;;2.08;;
12367;SDS011;6248;49.812;6.620;2023-11-19T13:05:25;7.53;;;2.42;;
12367;SDS011;6248;49.812;6.620;2023-11-19T13:08:00;6.43;;;2.20;;
12367;SDS011;6248;49.812;6.620;2023-11-19T13:10:28;8.63;;;2.72;;
12367;SDS011;6248;49.812;6.620;2023-11-19T13:13:02;7.07;;;2.40;;
12367;SDS011;6248;49.812;6.620;2023-11-19T13:15:30;9.10;;;2.35;;
12367;SDS011;6248;49.812;6.620;2023-11-19T13:17:58;4.65;;;1.55;;
12367;SDS011;6248;49.812;6.620;2023-11-19T13:20:27;6.53;;;2.05;;
12367;SDS011;6248;49.812;6.620;2023-11-19T13:22:55;9.63;;;2.30;;
12367;SDS011;6248;49.812;6.620;2023-11-19T13:25:22;6.88;;;2.40;;
12367;SDS011;6248;49.812;6.620;2023-11-19T13:27:49;7.38;;;2.45;;
12367;SDS011;6248;49.812;6.620;2023-11-19T13:30:17;9.88;;;2.78;;
12367;SDS011;6248;49.812;6.620;2023-11-19T13:32:45;8.50;;;2.58;;
12367;SDS011;6248;49.812;6.620;2023-11-19T13:35:20;10.02;;;2.40;;
12367;SDS011;6248;49.812;6.620;2023-11-19T13:37:48;8.35;;;2.83;;
12367;SDS011;6248;49.812;6.620;2023-11-19T13:40:20;8.88;;;2.90;;
12367;SDS011;6248;49.812;6.620;2023-11-19T13:42:49;8.13;;;2.25;;
12367;SDS011;6248;49.812;6.620;2023-11-19T13:45:16;9.80;;;2.28;;
12367;SDS011;6248;49.812;6.620;2023-11-19T13:47:45;9.80;;;2.23;;
12367;SDS011;6248;49.812;6.620;2023-11-19T13:50:13;7.07;;;2.08;;
12367;SDS011;6248;49.812;6.620;2023-11-19T13:52:44;4.93;;;1.95;;
12367;SDS011;6248;49.812;6.620;2023-11-19T13:55:14;6.78;;;2.13;;
12367;SDS011;6248;49.812;6.620;2023-11-19T13:57:43;8.98;;;2.08;;
12367;SDS011;6248;49.812;6.620;2023-11-19T14:00:12;7.45;;;2.20;;
12367;SDS011;6248;49.812;6.620;2023-11-19T14:02:41;11.55;;;2.20;;
12367;SDS011;6248;49.812;6.620;2023-11-19T14:05:08;7.75;;;2.58;;
12367;SDS011;6248;49.812;6.620;2023-11-19T14:07:37;5.97;;;1.83;;
12367;SDS011;6248;49.812;6.620;2023-11-19T14:10:06;6.72;;;2.13;;
12367;SDS011;6248;49.812;6.620;2023-11-19T14:12:34;8.18;;;2.80;;
12367;SDS011;6248;49.812;6.620;2023-11-19T14:15:02;8.98;;;2.45;;
12367;SDS011;6248;49.812;6.620;2023-11-19T14:17:31;6.68;;;2.10;;
12367;SDS011;6248;49.812;6.620;2023-11-19T14:19:59;3.75;;;1.73;;
12367;SDS011;6248;49.812;6.620;2023-11-19T14:22:26;11.10;;;2.28;;
12367;SDS011;6248;49.812;6.620;2023-11-19T14:24:55;10.20;;;3.00;;
12367;SDS011;6248;49.812;6.620;2023-11-19T14:27:24;8.45;;;2.15;;
12367;SDS011;6248;49.812;6.620;2023-11-19T14:29:51;6.78;;;2.10;;
12367;SDS011;6248;49.812;6.620;2023-11-19T14:32:19;5.78;;;1.98;;
12367;SDS011;6248;49.812;6.620;2023-11-19T14:34:48;7.10;;;2.00;;
12367;SDS011;6248;49.812;6.620;2023-11-19T14:37:16;9.27;;;2.22;;
12367;SDS011;6248;49.812;6.620;2023-11-19T14:39:43;7.03;;;2.00;;
12367;SDS011;6248;49.812;6.620;2023-11-19T14:42:11;9.65;;;2.10;;
12367;SDS011;6248;49.812;6.620;2023-11-19T14:44:40;6.13;;;1.80;;
12367;SDS011;6248;49.812;6.620;2023-11-19T14:47:10;8.43;;;2.47;;
12367;SDS011;6248;49.812;6.620;2023-11-19T14:49:37;8.32;;;2.47;;
12367;SDS011;6248;49.812;6.620;2023-11-19T14:52:04;7.53;;;2.00;;
12367;SDS011;6248;49.812;6.620;2023-11-19T14:54:31;9.77;;;2.78;;
12367;SDS011;6248;49.812;6.620;2023-11-19T14:56:59;7.82;;;2.17;;
12367;SDS011;6248;49.812;6.620;2023-11-19T14:59:26;8.50;;;2.30;;
12367;SDS011;6248;49.812;6.620;2023-11-19T15:01:58;7.00;;;2.40;;
12367;SDS011;6248;49.812;6.620;2023-11-19T15:04:26;9.05;;;2.42;;
12367;SDS011;6248;49.812;6.620;2023-11-19T15:06:56;7.90;;;2.42;;
12367;SDS011;6248;49.812;6.620;2023-11-19T15:09:23;10.65;;;2.42;;
12367;SDS011;6248;49.812;6.620;2023-11-19T15:11:50;7.25;;;2.40;;
12367;SDS011;6248;49.812;6.620;2023-11-19T15:14:17;7.53;;;2.25;;